createdAt,value
2023-03-06T00:04:58.738Z,98159.79
2023-03-06T00:10:06.787Z,98164.93
2023-03-06T00:15:17.033Z,98166.61
2023-03-06T00:20:27.753Z,98168.04
2023-03-06T00:25:37.323Z,98160.82
2023-03-06T00:30:46.258Z,98151.88
2023-03-06T00:35:53.796Z,98149.77
2023-03-06T00:41:01.437Z,98149.52
2023-03-06T00:46:09.543Z,98144.77
2023-03-06T00:51:20.278Z,98144.68
2023-03-06T00:56:27.832Z,98135.01
2023-03-06T01:01:35.792Z,98130.25
2023-03-06T01:06:43.367Z,98137.28
2023-03-06T01:11:51.155Z,98133.45
2023-03-06T01:16:59.688Z,98135.84
2023-03-06T01:22:07.200Z,98140.18
2023-03-06T01:27:14.862Z,98146.39
2023-03-06T01:32:23.074Z,98144.98
2023-03-06T01:37:30.931Z,98136.46
2023-03-06T01:42:38.781Z,98127.79
2023-03-06T01:47:46.151Z,98128.31
2023-03-06T01:52:57.334Z,98131.42
2023-03-06T01:58:08.998Z,98134.86
2023-03-06T02:03:20.557Z,98122.15
2023-03-06T02:08:28.708Z,98126.02
2023-03-06T02:13:37.238Z,98135.08
2023-03-06T02:18:45.908Z,98130.02
2023-03-06T02:24:08.094Z,98122.33
2023-03-06T02:29:16.386Z,98112.50
2023-03-06T02:35:00.686Z,98111.45
2023-03-06T02:40:15.777Z,98108.48
2023-03-06T02:45:30.315Z,98106.02
2023-03-06T02:50:37.862Z,98106.05
2023-03-06T02:55:45.580Z,98103.02
2023-03-06T03:00:53.828Z,98113.12
2023-03-06T03:06:01.488Z,98105.34
2023-03-06T03:11:09.639Z,98108.66
2023-03-06T03:16:18.501Z,98106.52
2023-03-06T03:21:26.029Z,98098.02
2023-03-06T03:26:33.526Z,98100.23
2023-03-06T03:31:41.501Z,98099.05
2023-03-06T03:36:49.480Z,98089.66
2023-03-06T03:41:56.954Z,98089.11
2023-03-06T03:47:04.241Z,98086.75
2023-03-06T03:52:11.884Z,98089.01
2023-03-06T03:57:19.312Z,98081.05
2023-03-06T04:02:27.140Z,98075.64
2023-03-06T04:07:34.354Z,98069.06
2023-03-06T04:12:41.737Z,98070.99
2023-03-06T04:17:49.411Z,98067.73
2023-03-06T04:22:56.676Z,98065.52
2023-03-06T04:28:02.420Z,98062.83
2023-03-06T04:33:10.147Z,98059.96
2023-03-06T04:38:17.783Z,98062.48
2023-03-06T04:43:25.113Z,98051.18
2023-03-06T04:48:32.602Z,98049.50
2023-03-06T04:53:40.443Z,98045.80
2023-03-06T04:58:48.323Z,98048.60
2023-03-06T05:03:55.946Z,98047.02
2023-03-06T05:09:03.602Z,98049.45
2023-03-06T05:14:11.232Z,98048.59
2023-03-06T05:19:18.539Z,98053.71
2023-03-06T05:24:25.974Z,98055.77
2023-03-06T05:29:33.225Z,98057.73
2023-03-06T05:34:39.130Z,98061.86
2023-03-06T05:39:46.352Z,98061.65
2023-03-06T05:44:54.069Z,98054.89
2023-03-06T05:50:01.448Z,98055.48
2023-03-06T05:55:11.806Z,98055.08
2023-03-06T06:00:21.349Z,98056.70
2023-03-06T06:05:28.696Z,98053.11
2023-03-06T06:10:35.983Z,98049.55
2023-03-06T06:15:43.620Z,98048.60
2023-03-06T06:20:49.125Z,98052.12
2023-03-06T06:28:16.553Z,98052.77
2023-03-06T06:33:24.312Z,98058.59
2023-03-06T06:38:31.828Z,98057.20
2023-03-06T06:43:39.261Z,98051.02
2023-03-06T06:48:48.887Z,98051.59
2023-03-06T06:53:57.224Z,98043.52
2023-03-06T06:59:15.969Z,98043.70
2023-03-06T07:04:24.631Z,98044.47
2023-03-06T07:09:32.217Z,98041.85
2023-03-06T07:14:41.622Z,98043.05
2023-03-06T07:19:49.132Z,98048.24
2023-03-06T07:24:56.479Z,98047.67
2023-03-06T07:30:02.516Z,98051.08
2023-03-06T07:35:19.793Z,98054.94
2023-03-06T07:40:28.633Z,98057.30
2023-03-06T07:45:36.235Z,98059.10
2023-03-06T07:50:44.666Z,98056.98
2023-03-06T07:55:51.843Z,98069.02
2023-03-06T08:00:57.442Z,98071.04
2023-03-06T08:06:13.814Z,98075.94
2023-03-06T08:11:23.429Z,98076.98
2023-03-06T08:16:31.917Z,98073.03
2023-03-06T08:21:39.534Z,98070.78
2023-03-06T08:26:47.427Z,98074.54
2023-03-06T08:31:54.853Z,98070.89
2023-03-06T08:37:02.481Z,98070.96
2023-03-06T08:42:10.998Z,98072.41
2023-03-06T08:47:18.370Z,98069.06
2023-03-06T08:52:25.732Z,98067.80
2023-03-06T08:57:33.421Z,98073.73
2023-03-06T09:05:24.010Z,98079.88
2023-03-06T09:10:32.241Z,98078.52
2023-03-06T09:15:40.460Z,98082.40
2023-03-06T09:20:47.861Z,98084.87
2023-03-06T09:25:57.165Z,98077.84
2023-03-06T09:31:08.600Z,98080.43
2023-03-06T09:36:18.410Z,98080.99
2023-03-06T09:41:37.985Z,98082.38
2023-03-06T09:47:23.306Z,98078.31
2023-03-06T09:52:39.082Z,98077.45
2023-03-06T09:57:55.023Z,98075.27
2023-03-06T10:03:16.721Z,98068.79
2023-03-06T10:08:31.599Z,98057.15
2023-03-06T10:13:44.891Z,98060.61
2023-03-06T10:18:53.304Z,98056.86
2023-03-06T10:24:10.858Z,98047.44
2023-03-06T10:29:32.436Z,98043.52
2023-03-06T10:34:43.060Z,98040.73
2023-03-06T10:39:56.341Z,98037.79
2023-03-06T10:45:15.013Z,98028.66
2023-03-06T10:50:28.248Z,98022.47
2023-03-06T10:55:37.905Z,98014.89
2023-03-06T11:00:45.125Z,98008.81
2023-03-06T11:06:13.323Z,98003.99
2023-03-06T11:11:37.194Z,97998.63
2023-03-06T11:16:53.687Z,97993.43
2023-03-06T11:22:06.895Z,97991.11
2023-03-06T11:27:26.278Z,97983.80
2023-03-06T11:32:42.344Z,97975.50
2023-03-06T11:37:55.205Z,97970.25
2023-03-06T11:43:16.211Z,97965.36
2023-03-06T11:48:29.119Z,97959.77
2023-03-06T11:53:39.852Z,97948.20
2023-03-06T11:59:02.578Z,97941.66
2023-03-06T12:04:35.596Z,97938.67
2023-03-06T12:09:52.744Z,97924.35
2023-03-06T12:15:14.826Z,97914.11
2023-03-06T12:20:36.054Z,97905.48
2023-03-06T12:25:46.199Z,97901.13
2023-03-06T12:31:12.672Z,97896.83
2023-03-06T12:36:40.536Z,97895.61
2023-03-06T12:41:57.786Z,97894.92
2023-03-06T12:47:10.366Z,97890.36
2023-03-06T12:52:30.185Z,97887.27
2023-03-06T12:57:37.928Z,97882.29
2023-03-06T13:03:08.004Z,97875.31
2023-03-06T13:08:51.215Z,97872.81
2023-03-06T13:13:59.523Z,97870.66
2023-03-06T13:19:17.697Z,97873.45
2023-03-06T13:24:26.685Z,97867.05
2023-03-06T13:29:54.531Z,97865.21
2023-03-06T13:35:01.949Z,97851.45
2023-03-06T13:40:35.334Z,97845.23
2023-03-06T13:45:44.995Z,97837.95
2023-03-06T13:50:53.007Z,97832.91
2023-03-06T13:56:14.339Z,97836.27
2023-03-06T14:01:37.239Z,97844.52
2023-03-06T14:06:54.404Z,97856.66
2023-03-06T14:12:07.607Z,97856.55
2023-03-06T14:17:26.567Z,97858.30
2023-03-06T14:22:34.748Z,97861.63
2023-03-06T14:27:54.889Z,97862.93
2023-03-06T14:33:13.834Z,97864.49
2023-03-06T14:38:21.132Z,97864.13
2023-03-06T14:43:28.496Z,97861.19
2023-03-06T14:48:45.046Z,97857.94
2023-03-06T14:53:55.598Z,97853.32
2023-03-06T14:59:05.572Z,97852.86
2023-03-06T15:04:21.791Z,97849.20
2023-03-06T15:09:31.453Z,97846.91
2023-03-06T15:14:41.460Z,97841.52
2023-03-06T15:19:50.839Z,97835.02
2023-03-06T15:25:18.670Z,97832.89
2023-03-06T15:30:29.767Z,97833.48
2023-03-06T15:35:38.347Z,97834.36
2023-03-06T15:40:57.720Z,97830.42
2023-03-06T15:46:06.979Z,97832.95
2023-03-06T15:51:14.796Z,97836.87
2023-03-06T15:56:27.911Z,97838.41
2023-03-06T16:01:37.108Z,97837.24
2023-03-06T16:06:46.249Z,97839.00
2023-03-06T16:11:53.384Z,97834.83
2023-03-06T16:17:00.972Z,97834.02
2023-03-06T16:22:09.238Z,97829.95
2023-03-06T16:27:20.704Z,97831.08
2023-03-06T16:32:28.852Z,97833.15
2023-03-06T16:37:36.328Z,97838.39
2023-03-06T16:42:43.695Z,97838.54
2023-03-06T16:47:51.613Z,97836.46
2023-03-06T16:52:59.833Z,97839.84
2023-03-06T16:58:08.899Z,97842.05
2023-03-06T17:03:16.977Z,97844.23
2023-03-06T17:08:24.210Z,97854.05
2023-03-06T17:19:32.391Z,97864.72
2023-03-06T17:24:37.104Z,97863.35
2023-03-06T17:29:41.064Z,97858.36
2023-03-06T17:34:45.883Z,97855.70
2023-03-06T17:39:49.892Z,97855.39
2023-03-06T17:44:53.983Z,97851.91
2023-03-06T17:49:58.057Z,97852.98
2023-03-06T17:55:02.340Z,97859.58
2023-03-06T18:00:13.180Z,97855.97
2023-03-06T18:05:20.235Z,97855.97
2023-03-06T18:10:24.542Z,97851.66
2023-03-06T18:15:28.780Z,97854.76
2023-03-06T18:20:33.297Z,97849.78
2023-03-06T18:25:37.833Z,97848.96
2023-03-06T18:30:42.277Z,97847.80
2023-03-06T18:35:47.144Z,97846.66
2023-03-06T18:40:51.698Z,97846.52
2023-03-06T18:45:57.117Z,97847.60
2023-03-06T18:51:06.478Z,97848.45
2023-03-06T18:56:16.246Z,97846.30
2023-03-06T19:01:21.819Z,97845.48
2023-03-06T19:06:27.832Z,97838.87
2023-03-06T19:11:33.979Z,97844.91
2023-03-06T19:16:38.404Z,97842.70
2023-03-06T19:21:42.538Z,97840.98
2023-03-06T19:26:46.655Z,97846.54
2023-03-06T19:31:51.775Z,97846.63
2023-03-06T19:36:55.827Z,97842.38
2023-03-06T19:41:59.700Z,97839.23
2023-03-06T19:47:03.863Z,97837.73
2023-03-06T19:52:08.345Z,97838.48
2023-03-06T19:57:13.442Z,97835.61
2023-03-06T20:02:18.971Z,97827.77
2023-03-06T20:07:22.998Z,97829.84
2023-03-06T20:12:27.274Z,97835.31
2023-03-06T20:17:32.107Z,97835.17
2023-03-06T20:22:36.224Z,97841.36
2023-03-06T20:27:40.503Z,97847.52
2023-03-06T20:32:45.154Z,97844.70
2023-03-06T20:37:49.271Z,97840.30
2023-03-06T20:42:53.415Z,97836.83
2023-03-06T20:47:57.579Z,97829.34
2023-03-06T20:53:01.641Z,97823.86
2023-03-06T20:58:07.178Z,97828.83
2023-03-06T21:03:11.450Z,97826.99
2023-03-06T21:08:16.268Z,97829.77
2023-03-06T21:13:20.973Z,97822.73
2023-03-06T21:18:25.883Z,97817.83
2023-03-06T21:23:30.078Z,97820.36
2023-03-06T21:28:34.414Z,97821.59
2023-03-06T21:33:38.537Z,97817.50
2023-03-06T21:38:42.469Z,97820.27
2023-03-06T21:43:47.848Z,97820.64
2023-03-06T21:48:52.484Z,97822.62
2023-03-06T21:53:57.356Z,97821.77
2023-03-06T21:59:01.712Z,97820.81
2023-03-06T22:04:06.202Z,97818.26
2023-03-06T22:09:13.155Z,97807.94
2023-03-06T22:14:16.801Z,97806.10
2023-03-06T22:19:21.065Z,97804.17
2023-03-06T22:24:25.482Z,97800.55
2023-03-06T22:29:30.086Z,97796.48
2023-03-06T22:34:34.876Z,97795.41
2023-03-06T22:39:39.764Z,97795.08
2023-03-06T22:44:44.231Z,97803.48
2023-03-06T22:49:48.141Z,97806.97
2023-03-06T22:54:52.198Z,97803.98
2023-03-06T22:59:56.287Z,97806.99
2023-03-06T23:05:00.212Z,97807.52
2023-03-06T23:10:06.355Z,97811.77
2023-03-06T23:15:11.477Z,97809.70
2023-03-06T23:20:15.794Z,97803.44
2023-03-06T23:29:11.432Z,97797.30
2023-03-06T23:34:19.220Z,97800.34
2023-03-06T23:39:27.212Z,97802.45
2023-03-06T23:44:35.870Z,97800.89
2023-03-06T23:49:43.186Z,97804.64
2023-03-06T23:54:52.673Z,97811.49
